Time;durP1;ratioP1;P1;durP2;ratioP2;P2;SDS_P1;SDS_P2;PMS_P1;PMS_P2;Temp;Humidity;BMP_temperature;BMP_pressure;BME280_temperature;BME280_humidity;BME280_pressure;Samples;Min_cycle;Max_cycle;Signal;HPM_P1;HPM_P2
2021/04/09 00:00:45;;;;;;;16.55;9.45;;;;;;;-1.50;75.55;100617.02;1662394;86;21602;-75
2021/04/09 00:03:13;;;;;;;13.03;7.95;;;;;;;-1.54;75.50;100615.64;1662199;86;21366;-73
2021/04/09 00:05:43;;;;;;;21.12;11.25;;;;;;;-1.58;75.87;100615.15;1626888;88;21241;-73
2021/04/09 00:08:13;;;;;;;14.63;8.15;;;;;;;-1.61;76.15;100619.84;1667461;85;21190;-75
2021/04/09 00:10:40;;;;;;;22.77;10.05;;;;;;;-1.62;76.23;100626.25;1655746;86;21222;-74
2021/04/09 00:13:08;;;;;;;20.60;11.93;;;;;;;-1.66;76.49;100625.30;1667492;86;21186;-74
2021/04/09 00:15:37;;;;;;;19.55;10.68;;;;;;;-1.69;76.63;100622.67;1655748;86;21438;-76
2021/04/09 00:18:06;;;;;;;16.25;9.75;;;;;;;-1.70;76.84;100626.11;1667361;86;21210;-74
2021/04/09 00:20:35;;;;;;;18.95;10.28;;;;;;;-1.71;76.98;100626.92;1655432;86;21208;-73
2021/04/09 00:23:03;;;;;;;18.00;10.72;;;;;;;-1.76;77.01;100631.13;1666761;86;21216;-73
2021/04/09 00:25:31;;;;;;;20.23;10.75;;;;;;;-1.80;77.31;100630.61;1655812;86;21269;-73
2021/04/09 00:27:59;;;;;;;21.00;10.55;;;;;;;-1.81;77.54;100630.17;1667309;86;21794;-73
2021/04/09 00:30:28;;;;;;;17.52;9.18;;;;;;;-1.84;77.71;100641.70;1655641;86;21252;-72
2021/04/09 00:32:56;;;;;;;19.37;10.15;;;;;;;-1.86;77.90;100636.92;1655738;86;21626;-73
2021/04/09 00:35:24;;;;;;;20.95;9.78;;;;;;;-1.88;78.10;100647.66;1667730;86;21635;-75
2021/04/09 00:37:52;;;;;;;16.20;9.08;;;;;;;-1.95;78.05;100643.65;1655950;86;21217;-73
2021/04/09 00:40:20;;;;;;;16.70;9.48;;;;;;;-2.01;78.11;100651.24;1667668;86;21234;-72
2021/04/09 00:42:49;;;;;;;18.48;10.03;;;;;;;-2.06;78.25;100655.86;1655818;86;21228;-73
2021/04/09 00:45:18;;;;;;;18.57;9.18;;;;;;;-2.10;78.34;100653.62;1656047;86;21209;-73
2021/04/09 00:47:46;;;;;;;14.93;8.73;;;;;;;-2.15;78.53;100657.81;1655898;86;21626;-73
2021/04/09 00:50:16;;;;;;;16.93;9.50;;;;;;;-2.17;78.71;100659.48;1655969;86;21161;-74
2021/04/09 00:52:45;;;;;;;21.62;11.25;;;;;;;-2.18;78.94;100657.75;1667675;86;21711;-74
2021/04/09 00:55:13;;;;;;;18.35;11.08;;;;;;;-2.19;79.20;100663.73;1655927;86;21240;-74
2021/04/09 00:57:41;;;;;;;20.60;11.60;;;;;;;-2.19;79.31;100661.15;1667759;86;21224;-75
2021/04/09 01:00:11;;;;;;;24.02;11.65;;;;;;;-2.20;79.57;100669.73;1655991;86;21266;-74
2021/04/09 01:02:39;;;;;;;19.07;10.63;;;;;;;-2.21;79.55;100662.81;1667579;85;21194;-75
2021/04/09 01:05:09;;;;;;;18.57;10.13;;;;;;;-2.19;79.65;100665.02;1638070;86;21444;-74
2021/04/09 01:07:39;;;;;;;18.70;10.55;;;;;;;-2.19;79.64;100671.47;1636770;86;21224;-78
2021/04/09 01:10:08;;;;;;;18.45;9.98;;;;;;;-2.21;79.47;100669.27;1603757;89;21208;-78
2021/04/09 01:12:36;;;;;;;22.17;9.85;;;;;;;-2.23;79.50;100674.81;1603456;89;21719;-77
2021/04/09 01:15:06;;;;;;;21.73;9.68;;;;;;;-2.26;79.60;100673.45;1655946;86;21176;-78
2021/04/09 01:17:43;;;;;;;19.82;9.35;;;;;;;-2.27;79.71;100673.02;1600196;89;21191;-76
2021/04/09 01:21:08;;;;;;;17.57;9.23;;;;;;;-2.32;79.83;100685.38;1636745;87;21244;-78
2021/04/09 01:23:56;;;;;;;15.75;9.83;;;;;;;-2.29;79.97;100685.00;1636943;87;22285;-75
2021/04/09 01:27:18;;;;;;;17.90;9.73;;;;;;;-2.32;80.26;100680.22;1636504;87;21713;-75
2021/04/09 01:30:11;;;;;;;20.95;8.95;;;;;;;-2.37;80.16;100685.70;1615957;88;21614;-74
2021/04/09 01:32:47;;;;;;;21.40;10.93;;;;;;;-2.38;80.34;100690.38;1845741;76;22721;-75
2021/04/09 01:35:17;;;;;;;26.35;12.15;;;;;;;-2.44;80.53;100695.41;1811125;78;21661;-75
2021/04/09 01:38:04;;;;;;;23.45;13.78;;;;;;;-2.44;80.78;100694.13;1815909;78;21977;-75
2021/04/09 01:40:41;;;;;;;27.50;13.65;;;;;;;-2.42;81.12;100695.00;1815937;79;21812;-76
2021/04/09 01:43:15;;;;;;;25.23;12.55;;;;;;;-2.35;81.54;100703.38;1786124;79;21757;-74
2021/04/09 01:45:43;;;;;;;16.80;9.33;;;;;;;-2.33;81.68;100705.55;1815989;79;21261;-76
2021/04/09 01:48:12;;;;;;;20.35;10.10;;;;;;;-2.29;81.63;100705.64;1815944;79;21202;-76
2021/04/09 01:50:40;;;;;;;17.00;9.85;;;;;;;-2.28;81.60;100704.80;1815931;79;21356;-77
2021/04/09 01:53:08;;;;;;;19.82;10.05;;;;;;;-2.27;81.50;100710.42;1787423;79;21162;-77
2021/04/09 01:55:42;;;;;;;15.60;8.65;;;;;;;-2.26;81.38;100712.16;1783979;80;21206;-76
2021/04/09 01:58:10;;;;;;;20.62;12.53;;;;;;;-2.27;81.26;100720.33;1784059;80;21181;-74
2021/04/09 02:00:40;;;;;;;18.15;11.55;;;;;;;-2.27;81.32;100718.16;1784040;80;21198;-76
2021/04/09 02:03:07;;;;;;;23.65;11.85;;;;;;;-2.25;81.34;100716.50;1783820;80;21417;-76
2021/04/09 02:05:36;;;;;;;22.42;13.50;;;;;;;-2.25;81.39;100721.66;1783813;80;21264;-74
2021/04/09 02:08:04;;;;;;;22.80;13.40;;;;;;;-2.23;81.57;100719.96;1783684;80;21198;-74
2021/04/09 02:10:32;;;;;;;26.40;13.50;;;;;;;-2.21;81.82;100724.36;1783757;80;21167;-77
2021/04/09 02:13:01;;;;;;;24.10;12.98;;;;;;;-2.17;81.99;100722.70;1783630;80;21178;-76
2021/04/09 02:15:29;;;;;;;24.07;12.60;;;;;;;-2.14;82.16;100727.92;1783952;80;21357;-75
2021/04/09 02:17:56;;;;;;;23.42;10.88;;;;;;;-2.12;82.25;100732.70;1783540;79;21210;-76
2021/04/09 02:20:25;;;;;;;18.32;10.98;;;;;;;-2.10;82.29;100738.78;1783816;80;21162;-76
2021/04/09 02:22:53;;;;;;;24.60;11.40;;;;;;;-2.11;82.32;100733.18;1783638;80;21187;-75
2021/04/09 02:25:23;;;;;;;18.77;9.33;;;;;;;-2.11;82.23;100737.05;1783940;80;21734;-77
2021/04/09 02:27:52;;;;;;;15.10;8.43;;;;;;;-2.13;82.12;100743.88;1783633;80;21198;-77
2021/04/09 02:30:21;;;;;;;17.52;10.95;;;;;;;-2.15;82.31;100738.67;1783934;80;21753;-74
2021/04/09 02:32:51;;;;;;;17.75;10.80;;;;;;;-2.17;82.29;100740.77;1797124;79;21633;-75
2021/04/09 02:35:19;;;;;;;24.47;13.78;;;;;;;-2.21;82.23;100743.70;1798464;79;21189;-75
2021/04/09 02:37:49;;;;;;;22.20;14.15;;;;;;;-2.24;82.28;100750.48;1798387;79;21181;-75
2021/04/09 02:40:24;;;;;;;27.00;15.63;;;;;;;-2.27;82.52;100751.28;1796197;79;21203;-73
2021/04/09 02:42:53;;;;;;;26.65;15.25;;;;;;;-2.26;82.70;100754.30;1785257;80;21166;-73
2021/04/09 02:45:23;;;;;;;25.12;14.90;;;;;;;-2.29;82.92;100749.50;1785334;80;21178;-74
2021/04/09 02:47:52;;;;;;;27.48;15.63;;;;;;;-2.28;83.18;100753.81;1747797;81;21179;-74
2021/04/09 02:50:33;;;;;;;28.90;14.45;;;;;;;-2.27;83.29;100756.87;1748070;82;21178;-75
2021/04/09 02:53:17;;;;;;;25.72;14.00;;;;;;;-2.26;83.44;100756.02;1747675;80;21649;-73
2021/04/09 02:55:48;;;;;;;25.70;14.43;;;;;;;-2.22;83.55;100768.17;1747822;81;21147;-73
2021/04/09 02:58:18;;;;;;;17.25;10.50;;;;;;;-2.22;83.83;100762.59;1747885;81;21191;-74
2021/04/09 03:00:47;;;;;;;19.85;11.73;;;;;;;-2.20;83.84;100771.66;1747924;82;21123;-73
2021/04/09 03:03:16;;;;;;;27.30;13.40;;;;;;;-2.20;83.91;100774.25;1748057;82;21159;-75
2021/04/09 03:05:45;;;;;;;24.63;14.73;;;;;;;-2.18;84.08;100780.32;1765466;80;22343;-75
2021/04/09 03:08:13;;;;;;;23.85;13.50;;;;;;;-2.17;84.23;100779.47;1758547;81;21723;-75
2021/04/09 03:10:41;;;;;;;26.70;15.70;;;;;;;-2.14;84.31;100783.41;1777146;80;21659;-75
2021/04/09 03:13:09;;;;;;;28.50;15.78;;;;;;;-2.13;84.61;100785.17;1758519;81;21213;-76
2021/04/09 03:15:58;;;;;;;28.27;15.25;;;;;;;-2.09;84.79;100788.29;1758727;81;21218;-77
2021/04/09 03:18:29;;;;;;;24.87;15.45;;;;;;;-2.04;85.08;100798.30;1777125;80;22327;-75
2021/04/09 03:20:59;;;;;;;22.02;12.18;;;;;;;-1.99;85.19;100803.16;1758512;81;21218;-76
2021/04/09 03:23:28;;;;;;;25.08;13.98;;;;;;;-1.94;85.19;100804.13;1777166;80;21131;-75
2021/04/09 03:25:55;;;;;;;30.70;16.55;;;;;;;-1.89;85.21;100808.12;1758604;81;21151;-76
2021/04/09 03:28:24;;;;;;;26.75;15.58;;;;;;;-1.83;85.24;100813.44;1777118;80;21155;-75
2021/04/09 03:30:51;;;;;;;18.02;11.15;;;;;;;-1.79;85.39;100814.41;1758583;81;21203;-75
2021/04/09 03:33:21;;;;;;;17.50;11.78;;;;;;;-1.72;85.39;100820.17;1784132;80;21183;-77
2021/04/09 03:35:50;;;;;;;19.10;11.38;;;;;;;-1.69;85.32;100817.64;1752743;81;21235;-77
2021/04/09 03:38:19;;;;;;;22.22;12.93;;;;;;;-1.64;85.37;100819.91;1739549;82;21186;-75
2021/04/09 03:40:47;;;;;;;21.87;14.35;;;;;;;-1.57;85.45;100830.84;1784602;80;21191;-75
2021/04/09 03:43:17;;;;;;;27.85;15.85;;;;;;;-1.53;85.48;100840.41;1752654;81;21192;-75
2021/04/09 03:45:45;;;;;;;31.73;16.35;;;;;;;-1.50;85.46;100840.47;1739663;82;21141;-75
2021/04/09 03:48:13;;;;;;;31.80;17.32;;;;;;;-1.43;85.38;100850.53;1784431;80;21150;-76
2021/04/09 03:50:41;;;;;;;28.30;16.50;;;;;;;-1.38;85.32;100850.64;1784518;80;21210;-76
2021/04/09 03:53:09;;;;;;;29.20;15.75;;;;;;;-1.34;85.17;100848.59;1784484;80;21195;-76
2021/04/09 03:55:37;;;;;;;27.15;15.95;;;;;;;-1.25;85.18;100850.09;1752714;81;22230;-74
2021/04/09 03:58:06;;;;;;;27.98;16.65;;;;;;;-1.02;85.48;100841.97;1739406;82;21665;-74
2021/04/09 04:00:33;;;;;;;29.35;15.75;;;;;;;-0.52;85.75;100850.77;1739605;82;21606;-74
2021/04/09 04:03:01;;;;;;;24.47;15.43;;;;;;;-0.07;84.73;100852.88;1757999;80;21186;-74
2021/04/09 04:05:29;;;;;;;29.55;14.55;;;;;;;0.39;83.93;100856.25;1770925;80;21183;-75
2021/04/09 04:07:57;;;;;;;26.48;14.28;;;;;;;0.86;82.93;100862.59;1757415;81;21363;-72
2021/04/09 04:10:27;;;;;;;24.15;14.40;;;;;;;1.37;81.83;100864.13;1757329;81;21234;-73
2021/04/09 04:12:56;;;;;;;22.60;14.50;;;;;;;1.86;80.90;100859.50;1759139;80;21461;-81
2021/04/09 04:15:25;;;;;;;23.77;13.65;;;;;;;2.33;78.62;100858.62;1786778;80;21198;-80
2021/04/09 04:17:53;;;;;;;19.52;13.43;;;;;;;2.76;77.29;100858.92;1768586;80;21223;-80
2021/04/09 04:22:36;;;;;;;20.40;13.17;;;;;;;3.76;74.27;100869.38;1774710;79;22874;-80
2021/04/09 04:25:05;;;;;;;19.52;13.18;;;;;;;4.05;72.99;100869.86;1727289;82;21112;-82
2021/04/09 04:27:33;;;;;;;22.02;13.70;;;;;;;4.06;71.98;100871.17;1719936;83;21377;-83
2021/04/09 04:30:01;;;;;;;21.68;13.28;;;;;;;3.96;70.97;100879.86;1718301;82;21178;-82
2021/04/09 04:32:29;;;;;;;22.10;14.55;;;;;;;3.79;69.97;100881.10;1717800;83;21199;-79
2021/04/09 04:34:57;;;;;;;21.77;13.08;;;;;;;3.62;69.97;100886.70;1685744;84;21190;-78
2021/04/09 04:37:25;;;;;;;23.12;14.60;;;;;;;3.56;69.19;100887.54;1685814;85;21206;-79
2021/04/09 04:39:53;;;;;;;20.52;14.23;;;;;;;3.58;69.10;100891.02;1685765;85;21221;-79
2021/04/09 04:42:21;;;;;;;23.65;14.68;;;;;;;3.52;68.96;100893.59;1685753;85;21209;-80
2021/04/09 04:44:49;;;;;;;22.95;14.38;;;;;;;3.54;69.25;100899.27;1685941;85;21800;-78
2021/04/09 04:47:17;;;;;;;21.20;14.33;;;;;;;3.55;69.07;100898.39;1685003;85;21222;-80
2021/04/09 04:49:46;;;;;;;23.05;14.07;;;;;;;3.54;69.12;100905.78;1682941;85;21195;-80
2021/04/09 04:52:15;;;;;;;25.37;15.32;;;;;;;3.54;69.27;100904.89;1684403;85;22361;-78
2021/04/09 04:54:43;;;;;;;25.20;15.00;;;;;;;3.48;68.66;100913.56;1684655;85;21235;-79
2021/04/09 04:57:12;;;;;;;24.70;16.07;;;;;;;3.37;68.59;100911.34;1685171;85;21153;-82
2021/04/09 04:59:40;;;;;;;34.88;17.15;;;;;;;3.30;68.64;100910.43;1684846;84;21155;-77
2021/04/09 05:02:08;;;;;;;22.20;15.00;;;;;;;3.30;68.57;100916.08;1684118;85;21750;-76
2021/04/09 05:04:37;;;;;;;24.43;15.43;;;;;;;3.67;69.15;100919.71;1683533;85;21396;-76
2021/04/09 05:07:05;;;;;;;24.15;16.05;;;;;;;4.28;67.79;100926.84;1679135;85;21208;-76
2021/04/09 05:09:34;;;;;;;22.95;14.55;;;;;;;5.02;67.00;100935.53;1678802;85;21139;-75
2021/04/09 05:12:02;;;;;;;25.32;14.85;;;;;;;5.78;64.37;100921.80;1678919;85;21263;-76
2021/04/09 05:14:30;;;;;;;22.13;14.65;;;;;;;6.46;61.38;100922.73;1678886;85;21146;-76
2021/04/09 05:16:57;;;;;;;21.02;14.80;;;;;;;7.08;60.88;100926.55;1678844;85;21881;-78
2021/04/09 05:19:26;;;;;;;22.85;14.33;;;;;;;7.59;59.83;100923.37;1678991;85;21209;-76
2021/04/09 05:21:55;;;;;;;23.22;14.45;;;;;;;8.02;55.50;100928.06;1674625;84;21154;-75
2021/04/09 05:24:24;;;;;;;29.25;14.10;;;;;;;8.40;53.81;100930.63;1672018;85;21140;-77
2021/04/09 05:26:52;;;;;;;18.90;13.22;;;;;;;8.82;54.67;100925.57;1672137;85;21184;-77
2021/04/09 05:29:20;;;;;;;21.17;13.18;;;;;;;9.25;53.96;100931.38;1672162;85;21665;-80
2021/04/09 05:31:47;;;;;;;23.02;13.88;;;;;;;9.77;52.81;100927.69;1672373;85;21608;-76
2021/04/09 05:34:16;;;;;;;17.92;12.65;;;;;;;10.41;51.76;100927.20;1640662;85;21496;-81
2021/04/09 05:36:44;;;;;;;17.65;12.13;;;;;;;10.99;48.83;100927.53;1659722;85;21264;-79
2021/04/09 05:39:12;;;;;;;18.98;13.03;;;;;;;11.45;48.83;100927.14;1665926;85;21176;-80
2021/04/09 05:41:40;;;;;;;18.48;11.85;;;;;;;11.93;47.11;100929.77;1656557;86;21825;-80
2021/04/09 05:44:08;;;;;;;19.60;12.37;;;;;;;12.33;45.36;100925.47;1659249;85;21686;-79
2021/04/09 05:46:36;;;;;;;18.67;12.63;;;;;;;12.76;44.67;100933.30;1664567;86;22292;-80
2021/04/09 05:49:04;;;;;;;20.35;13.40;;;;;;;13.09;42.73;100930.45;1666615;85;21128;-80
2021/04/09 05:51:35;;;;;;;16.35;12.68;;;;;;;13.44;42.30;100933.66;1662038;85;21698;-80
2021/04/09 05:54:03;;;;;;;17.98;12.73;;;;;;;13.77;39.52;100929.36;1617240;86;21821;-81
2021/04/09 05:56:31;;;;;;;21.17;12.90;;;;;;;13.87;39.18;100930.72;1661563;86;21211;-79
2021/04/09 05:58:59;;;;;;;16.42;11.57;;;;;;;14.14;39.53;100927.95;1666991;86;21203;-81
2021/04/09 06:01:28;;;;;;;19.05;12.90;;;;;;;14.51;39.12;100927.80;1660303;85;21209;-80
2021/04/09 06:03:57;;;;;;;19.30;13.30;;;;;;;14.97;37.46;100927.25;1664452;86;21227;-82
2021/04/09 06:06:25;;;;;;;17.37;12.47;;;;;;;15.36;36.97;100929.11;1660161;86;22136;-81
2021/04/09 06:08:54;;;;;;;19.10;13.45;;;;;;;15.79;35.31;100929.88;1661767;85;21207;-84
2021/04/09 06:11:21;;;;;;;17.10;12.35;;;;;;;16.12;34.71;100933.59;1656879;86;21176;-82
2021/04/09 06:13:52;;;;;;;20.08;13.45;;;;;;;16.26;33.74;100930.75;1665219;86;21207;-83
2021/04/09 06:16:20;;;;;;;16.32;12.75;;;;;;;16.24;33.93;100928.63;1711758;83;21188;-81
2021/04/09 06:18:48;;;;;;;19.77;13.03;;;;;;;16.29;33.66;100930.15;1696426;83;21368;-82
2021/04/09 06:21:18;;;;;;;19.15;10.55;;;;;;;16.33;34.95;100932.17;1706359;82;21230;-78
2021/04/09 06:23:46;;;;;;;20.23;12.13;;;;;;;16.78;35.48;100932.19;1709982;83;21139;-80
2021/04/09 06:26:15;;;;;;;15.50;12.65;;;;;;;17.30;32.77;100932.22;1708901;83;21686;-80
2021/04/09 06:28:43;;;;;;;19.42;11.28;;;;;;;17.37;33.70;100936.28;1703667;83;21187;-80
2021/04/09 06:31:11;;;;;;;17.25;11.97;;;;;;;17.30;32.41;100934.88;1712304;83;21323;-81
2021/04/09 06:33:41;;;;;;;18.32;13.10;;;;;;;17.22;32.43;100939.73;1706762;83;22333;-82
2021/04/09 06:36:10;;;;;;;16.90;12.55;;;;;;;16.90;32.39;100947.55;1700212;83;21229;-80
2021/04/09 06:38:40;;;;;;;19.65;12.60;;;;;;;16.38;33.68;100944.80;1717845;83;21167;-81
2021/04/09 06:41:09;;;;;;;20.80;13.70;;;;;;;16.26;33.73;100949.35;1714158;83;21227;-81
2021/04/09 06:43:37;;;;;;;19.55;14.18;;;;;;;16.30;33.67;100950.94;1709999;83;21341;-80
2021/04/09 06:46:06;;;;;;;31.75;13.18;;;;;;;16.39;33.93;100951.82;1707929;83;21171;-79
2021/04/09 06:48:34;;;;;;;19.27;12.93;;;;;;;16.43;33.64;100957.39;1711448;82;21136;-80
2021/04/09 06:51:03;;;;;;;21.23;13.22;;;;;;;16.69;33.29;100956.11;1707567;82;21186;-80
2021/04/09 06:53:32;;;;;;;18.90;12.37;;;;;;;16.95;33.74;100960.15;1716742;83;21136;-82
2021/04/09 06:56:00;;;;;;;15.65;11.88;;;;;;;17.27;33.54;100961.64;1707873;83;21197;-82
2021/04/09 06:58:29;;;;;;;16.50;12.28;;;;;;;17.55;33.64;100960.20;1706991;82;21191;-84
2021/04/09 07:00:59;;;;;;;23.80;13.60;;;;;;;17.70;32.04;100968.72;1703997;83;21236;-83
2021/04/09 07:03:27;;;;;;;19.90;13.08;;;;;;;17.90;32.08;100969.02;1709685;83;21159;-85
2021/04/09 07:05:55;;;;;;;33.45;13.40;;;;;;;18.18;31.82;100969.69;1704751;83;21167;-85
2021/04/09 07:08:26;;;;;;;46.77;14.00;;;;;;;18.29;31.23;100975.77;1714110;83;21805;-83
2021/04/09 07:10:54;;;;;;;34.20;14.00;;;;;;;18.46;30.62;100973.48;1702536;83;21187;-80
2021/04/09 07:13:23;;;;;;;28.42;12.82;;;;;;;18.69;29.75;100969.98;1708496;83;21227;-80
2021/04/09 07:15:51;;;;;;;18.45;12.33;;;;;;;18.94;28.84;100964.97;1703151;83;21220;-79
2021/04/09 07:18:19;;;;;;;18.12;12.07;;;;;;;19.15;28.56;100978.00;1705709;82;21171;-81
2021/04/09 07:20:47;;;;;;;24.67;12.60;;;;;;;19.18;28.06;100972.46;1702578;82;22285;-79
2021/04/09 07:23:17;;;;;;;14.53;11.38;;;;;;;19.18;28.69;100967.98;1703084;83;21223;-80
2021/04/09 07:25:45;;;;;;;18.73;12.88;;;;;;;19.53;27.44;100966.80;1707572;84;21112;-80
2021/04/09 07:28:21;;;;;;;17.25;12.25;;;;;;;19.64;27.33;100973.68;1702036;84;21183;-80
2021/04/09 07:30:56;;;;;;;15.75;12.18;;;;;;;19.57;27.40;100965.66;1702258;84;21144;-83
2021/04/09 07:33:27;;;;;;;16.05;11.18;;;;;;;19.74;27.12;100976.22;1702126;79;21369;-84
2021/04/09 07:38:41;;;;;;;12.78;10.13;;;;;;;20.24;25.25;100971.30;1827537;78;22701;-83
2021/04/09 07:41:10;;;;;;;12.75;10.05;;;;;;;20.15;25.56;100972.73;1759855;79;21139;-84
2021/04/09 07:43:45;;;;;;;15.72;10.03;;;;;;;19.93;26.01;100980.42;1723447;82;21369;-84
2021/04/09 07:46:27;;;;;;;13.78;10.28;;;;;;;19.81;25.30;100978.89;1729098;82;21195;-84
2021/04/09 07:49:07;;;;;;;16.57;9.83;;;;;;;19.69;24.40;100971.61;1739462;82;21085;-84
2021/04/09 07:51:34;;;;;;;12.83;9.67;;;;;;;19.52;24.43;100972.63;1706313;83;21136;-85
2021/04/09 07:54:10;;;;;;;13.70;9.53;;;;;;;19.47;24.96;100976.06;1701516;83;21124;-84
2021/04/09 07:56:45;;;;;;;11.50;8.98;;;;;;;19.49;24.63;100967.00;1741486;82;21490;-84
2021/04/09 07:59:13;;;;;;;15.72;8.88;;;;;;;19.57;24.46;100968.34;1716687;83;21147;-85
2021/04/09 08:01:49;;;;;;;10.98;8.20;;;;;;;19.36;24.28;100971.36;1714431;83;21714;-84
2021/04/09 08:04:19;;;;;;;11.65;8.80;;;;;;;18.88;25.56;100986.66;1713497;82;21195;-85
2021/04/09 08:06:47;;;;;;;13.93;8.43;;;;;;;18.76;24.83;100980.20;1713956;83;21172;-86
2021/04/09 08:09:19;;;;;;;12.23;8.58;;;;;;;19.00;23.79;100981.08;1733799;82;21369;-84
2021/04/09 08:11:47;;;;;;;18.45;9.30;;;;;;;19.38;23.98;100975.28;1694942;84;21150;-83
2021/04/09 08:14:24;;;;;;;30.95;10.00;;;;;;;19.75;24.48;100969.91;1712564;83;21171;-85
2021/04/09 08:16:54;;;;;;;10.80;8.20;;;;;;;19.68;23.50;100973.88;1719976;82;21132;-84
2021/04/09 08:19:25;;;;;;;12.70;8.65;;;;;;;19.22;23.32;100984.69;1714102;83;21627;-84
2021/04/09 08:21:55;;;;;;;12.95;8.90;;;;;;;18.62;23.54;100978.33;1739597;82;21429;-85
2021/04/09 08:24:31;;;;;;;11.87;8.07;;;;;;;17.69;24.75;100979.00;1739659;82;21132;-86
2021/04/09 08:26:59;;;;;;;12.00;8.58;;;;;;;16.82;27.11;100986.11;1739216;82;21180;-84
2021/04/09 08:29:30;;;;;;;10.30;7.85;;;;;;;16.36;27.18;100983.88;1739207;82;21198;-86
2021/04/09 08:32:02;;;;;;;10.55;6.62;;;;;;;16.38;26.65;100984.67;1713463;83;21253;-87
2021/04/09 08:34:29;;;;;;;11.05;7.33;;;;;;;16.81;28.33;100986.59;1739324;82;21191;-86
2021/04/09 08:36:58;;;;;;;14.20;8.23;;;;;;;17.31;25.90;100984.52;1712599;83;21761;-85
2021/04/09 08:39:29;;;;;;;14.65;7.53;;;;;;;17.46;25.86;100984.65;1765651;80;21710;-83
2021/04/09 08:41:57;;;;;;;14.30;8.45;;;;;;;17.56;25.09;100985.91;1765296;81;21227;-85
2021/04/09 08:44:25;;;;;;;12.70;8.78;;;;;;;17.81;24.84;100985.02;1764779;81;21163;-85
2021/04/09 08:46:53;;;;;;;12.40;7.28;;;;;;;17.95;24.86;100972.77;1765311;81;21189;-84
2021/04/09 08:49:21;;;;;;;7.55;5.62;;;;;;;17.53;23.98;100991.38;1763774;81;21166;-83
2021/04/09 08:51:50;;;;;;;11.65;6.67;;;;;;;17.78;24.36;100981.17;1766055;81;21158;-86
2021/04/09 08:57:09;;;;;;;7.83;5.35;;;;;;;18.75;22.31;100978.49;1825498;78;22772;-86
2021/04/09 08:59:44;;;;;;;8.15;6.20;;;;;;;18.92;24.85;100980.20;1702970;83;21171;-85
2021/04/09 09:02:27;;;;;;;9.40;6.35;;;;;;;18.95;21.56;100972.01;1711491;81;21849;-85
2021/04/09 09:05:05;;;;;;;20.02;5.30;;;;;;;18.24;22.08;100976.03;1711029;83;21187;-85
2021/04/09 09:23:14;;;;;;;9.93;4.73;;;;;;;15.51;27.09;100997.45;1839808;77;22529;-76
2021/04/09 09:25:43;;;;;;;19.48;5.05;;;;;;;15.27;27.68;101000.22;1755440;81;21040;-77
2021/04/09 09:28:20;;;;;;;7.00;4.60;;;;;;;14.87;27.06;101004.55;1856303;76;27831;-77
2021/04/09 09:30:55;;;;;;;5.20;3.40;;;;;;;14.65;26.43;101006.34;1802789;78;21190;-77
2021/04/09 09:33:28;;;;;;;4.92;3.20;;;;;;;14.46;24.83;101001.73;1844629;77;21362;-76
2021/04/09 09:36:08;;;;;;;9.35;4.25;;;;;;;14.12;25.24;101011.44;1775246;77;21267;-79
2021/04/09 09:38:51;;;;;;;6.42;4.45;;;;;;;13.81;28.24;101010.40;1736226;81;21257;-81
2021/04/09 09:41:40;;;;;;;10.75;4.50;;;;;;;13.99;28.13;101006.22;1742679;81;21170;-80
2021/04/09 09:44:31;;;;;;;12.85;4.17;;;;;;;14.30;28.27;101008.55;1753049;81;21198;-79
2021/04/09 09:47:04;;;;;;;;;;;;;;;14.48;25.40;101010.48;1748194;81;21364;-80
2021/04/09 09:49:40;;;;;;;5.80;2.52;;;;;;;14.49;24.62;101011.34;1705975;83;20768;-79
2021/04/09 09:52:24;;;;;;;5.25;2.90;;;;;;;14.34;23.39;101010.17;1688808;83;21214;-77
2021/04/09 09:55:24;;;;;;;13.28;3.00;;;;;;;14.06;24.14;101019.63;1707050;83;21211;-78
2021/04/09 09:58:12;;;;;;;6.33;2.85;;;;;;;13.68;25.62;101017.05;1707527;83;21300;-78
2021/04/09 10:00:45;;;;;;;5.28;3.10;;;;;;;13.41;25.50;101022.38;1704898;84;21306;-79
2021/04/09 10:03:32;;;;;;;6.55;3.45;;;;;;;13.14;24.68;101022.39;1706629;84;21202;-80
2021/04/09 10:06:11;;;;;;;7.17;2.80;;;;;;;13.01;24.69;101017.09;1742903;79;21544;-81
2021/04/09 10:08:43;;;;;;;6.05;3.20;;;;;;;13.25;24.78;101010.56;1765397;80;21159;-80
2021/04/09 10:11:19;;;;;;;8.05;3.33;;;;;;;13.73;25.55;101004.50;1772563;80;21166;-80
2021/04/09 10:13:49;;;;;;;5.50;2.45;;;;;;;14.31;24.76;100989.10;1772170;80;22334;-79
2021/04/09 10:16:25;;;;;;;10.30;3.22;;;;;;;14.88;23.40;100991.70;1778772;80;21187;-79
2021/04/09 10:18:58;;;;;;;6.83;3.22;;;;;;;15.21;24.66;100998.31;1752818;80;21247;-83
2021/04/09 10:21:33;;;;;;;32.17;4.00;;;;;;;15.66;25.63;100990.59;1765395;79;21919;-75
2021/04/09 10:24:19;;;;;;;7.37;3.62;;;;;;;16.20;23.48;100988.20;1780584;80;21170;-73
2021/04/09 10:27:02;;;;;;;7.35;2.70;;;;;;;16.58;22.13;100979.70;1783500;79;22260;-74
2021/04/09 10:29:37;;;;;;;4.25;2.40;;;;;;;16.83;19.95;100987.38;1783264;80;21197;-73
2021/04/09 10:32:18;;;;;;;5.47;2.45;;;;;;;16.82;20.10;100994.98;1773019;80;21182;-74
2021/04/09 10:34:53;;;;;;;3.33;2.40;;;;;;;16.57;19.84;100985.50;1773004;79;21114;-74
2021/04/09 10:37:25;;;;;;;9.88;3.47;;;;;;;16.56;21.83;100994.42;1718123;83;21209;-83
2021/04/09 10:39:55;;;;;;;9.68;4.22;;;;;;;16.66;22.80;100983.34;1697830;83;22876;-85
2021/04/09 10:42:22;;;;;;;5.85;3.25;;;;;;;16.40;21.40;100980.11;1704598;83;21192;-84
2021/04/09 10:44:51;;;;;;;4.45;2.42;;;;;;;16.31;19.96;100987.20;1695902;84;21606;-83
2021/04/09 10:47:21;;;;;;;6.67;2.60;;;;;;;16.48;20.75;100977.97;1703911;83;21233;-85
2021/04/09 10:49:57;;;;;;;9.50;2.67;;;;;;;16.46;20.58;100974.52;1704515;83;21626;-85
2021/04/09 10:52:25;;;;;;;6.30;2.72;;;;;;;16.33;20.87;100981.34;1654460;84;21898;-73
2021/04/09 10:55:02;;;;;;;8.18;2.40;;;;;;;16.53;20.33;100979.92;1622391;86;21252;-77
2021/04/09 10:57:35;;;;;;;5.17;2.60;;;;;;;16.72;21.02;100985.68;1666091;85;21207;-73
2021/04/09 11:00:07;;;;;;;3.50;2.47;;;;;;;16.94;20.30;100986.86;1665838;84;21251;-75
2021/04/09 11:02:39;;;;;;;3.08;2.30;;;;;;;16.98;20.27;100979.12;1665841;86;21215;-74
2021/04/09 11:05:08;;;;;;;4.92;2.60;;;;;;;17.11;22.31;100982.00;1679841;78;21223;-85
2021/04/09 11:07:48;;;;;;;4.20;2.60;;;;;;;17.07;22.77;100980.43;1743391;81;21139;-83
2021/04/09 11:10:37;;;;;;;4.30;2.50;;;;;;;17.25;24.19;100983.97;1756107;81;21244;-85
2021/04/09 11:13:06;;;;;;;19.90;2.70;;;;;;;17.47;23.02;100983.73;1787770;79;21628;-83
2021/04/09 11:15:41;;;;;;;4.90;2.50;;;;;;;17.47;20.89;100979.25;1770777;81;21197;-84
2021/04/09 11:18:09;;;;;;;4.45;2.33;;;;;;;17.75;20.59;100975.98;1791260;79;21428;-82
2021/04/09 11:20:44;;;;;;;7.55;2.50;;;;;;;17.80;19.62;100973.92;1783465;76;72947;-88
2021/04/09 11:23:15;;;;;;;7.45;3.08;;;;;;;17.94;20.71;100968.36;1756659;81;21144;-87
2021/04/09 11:25:47;;;;;;;4.83;2.40;;;;;;;18.23;20.66;100967.62;1756720;81;21231;-92
2021/04/09 11:28:29;;;;;;;5.22;3.60;;;;;;;18.45;20.97;100973.11;1730700;82;21637;-84
2021/04/09 11:31:04;;;;;;;4.17;2.62;;;;;;;18.30;21.59;100969.48;1720626;83;21176;-83
2021/04/09 11:33:39;;;;;;;;;;;;;;;18.30;24.10;100966.81;1761304;81;21148;-87
2021/04/09 11:36:23;;;;;;;4.17;2.62;;;;;;;18.29;20.62;100961.55;1741531;81;75639;-76
2021/04/09 11:39:17;;;;;;;5.58;3.25;;;;;;;18.03;18.85;100963.86;1730751;81;21970;-77
2021/04/09 11:41:52;;;;;;;5.92;3.80;;;;;;;17.92;20.41;100963.59;1735185;81;21202;-76
2021/04/09 11:44:39;;;;;;;4.97;2.95;;;;;;;18.07;20.04;100956.09;1815044;78;22753;-78
2021/04/09 11:50:19;;;;;;;9.50;5.60;;;;;;;17.42;18.86;100952.02;1845251;76;22719;-76
2021/04/09 11:53:02;;;;;;;5.20;3.02;;;;;;;16.65;20.30;100947.88;1718706;83;21170;-76
2021/04/09 11:55:36;;;;;;;6.42;3.00;;;;;;;16.01;21.71;100957.17;1693155;83;22223;-75
2021/04/09 11:58:19;;;;;;;8.80;3.20;;;;;;;15.86;22.17;100953.88;1694476;83;21202;-75
2021/04/09 12:00:57;;;;;;;;;;;;;;;15.71;21.58;100959.41;1699007;83;21608;-74
2021/04/09 12:03:44;;;;;;;13.10;3.80;;;;;;;15.41;23.74;100956.30;1709983;82;20552;-76